Hooper Bay Airport
PAHP : now visible

Airfield :











YOU CAN JOIN US ON...

 
LOGIN :

Register | Disclaimer

   EN    FR    IT 

 









Legend :    VFR   Marginal VFR   IFR   Intensive IFR   Very Intensive IFR
Visi :
Ceiling :
>= 8 km
>= 3000ft
5 to 8 km
1000 to 3000 ft
1500m to 5 km
500 to 1000 ft
800 to 1500m
200 to 500 ft
< 800m
< 200 ft
Symbols :   Thunderstorms  Fog  Heavy snow  Heavy precipitations  Wind > 20 kt






- Airport Elevation : 13 ft
- IATA code : HPB


PAHP - Hooper Bay

CURRENT METAR :
  • 151856Z AUTO 11024G29KT 10SM OVC007 02/01 A2909 RMK AO2 PK WND 11031/1846 SLP852 T00220011 FZRANO

EXPIRED METARs :
  • 151814Z AUTO 11025G30KT 10SM BKN009 02/01 A2909 RMK AO2 PK WND 11030/1805 FZRANO
  • 151756Z AUTO 11025G31KT 10SM FEW009 BKN039 02/01 A2909 RMK AO2 PK WND 11032/1745 SLP849 T00220006 10033 20017 50005 FZRANO
  • 151707Z AUTO 11026G32KT 10SM SCT013 02/00 A2908 RMK AO2 PK WND 10032/1701 FZRANO

TAF N/A



MET'MAP, your aeronautical weather chart ! - Copyright ORBIFLY December 2007 - Disclaimer

ORBIFLY MET'MAP TEAM :

Programming & Development : Alexandra Zaïnal
Concept & Development : Baudouin d'Aumeries
Co-Development & Prog : Marc-Olivier Méhu
Technical & hardware support : Manuel Goepfert

Contact : metmap@orbifly.com




SOURCES & CREDITS :

   NOAA       Earth
Advisory